createdAt,value
2024-02-08T00:02:02.642Z,8.46
2024-02-08T00:04:29.286Z,8.53
2024-02-08T00:06:55.968Z,8.11
2024-02-08T00:09:22.530Z,8.43
2024-02-08T00:11:48.998Z,8.43
2024-02-08T00:14:15.462Z,8.53
2024-02-08T00:16:41.910Z,8.65
2024-02-08T00:19:08.415Z,8.39
2024-02-08T00:21:36.595Z,8.23
2024-02-08T00:24:03.294Z,7.96
2024-02-08T00:26:29.883Z,8.42
2024-02-08T00:28:56.368Z,8.06
2024-02-08T00:31:22.915Z,8.60
2024-02-08T00:33:50.768Z,8.76
2024-02-08T00:36:17.316Z,8.81
2024-02-08T00:38:46.481Z,8.85
2024-02-08T00:41:13.013Z,8.44
2024-02-08T00:43:40.252Z,8.57
2024-02-08T00:46:07.549Z,8.83
2024-02-08T00:48:33.925Z,8.77
2024-02-08T00:51:00.492Z,8.60
2024-02-08T00:53:26.929Z,8.62
2024-02-08T00:55:53.453Z,8.75
2024-02-08T00:58:19.985Z,8.05
2024-02-08T01:00:48.735Z,7.97
2024-02-08T01:03:15.491Z,8.07
2024-02-08T01:05:43.353Z,8.63
2024-02-08T01:08:11.886Z,8.46
2024-02-08T01:10:38.490Z,8.61
2024-02-08T01:13:05.667Z,7.95
2024-02-08T01:15:32.084Z,8.01
2024-02-08T01:17:59.796Z,8.09
2024-02-08T01:20:29.395Z,7.61
2024-02-08T01:22:56.166Z,8.65
2024-02-08T01:25:22.741Z,8.47
2024-02-08T01:27:49.259Z,8.10
2024-02-08T01:30:15.740Z,7.55
2024-02-08T01:32:42.406Z,8.55
2024-02-08T01:35:12.241Z,7.34
2024-02-08T01:37:39.969Z,8.79
2024-02-08T01:40:17.663Z,8.01
2024-02-08T01:42:44.912Z,8.70
2024-02-08T01:45:31.573Z,8.51
2024-02-08T01:48:03.626Z,8.64
2024-02-08T01:50:33.928Z,8.62
2024-02-08T01:53:00.831Z,7.99
2024-02-08T01:55:34.015Z,8.41
2024-02-08T01:58:04.917Z,8.27
2024-02-08T02:00:36.394Z,7.94
2024-02-08T02:03:04.697Z,7.44
2024-02-08T02:05:31.245Z,8.73
2024-02-08T02:07:58.756Z,8.52
2024-02-08T02:10:31.016Z,8.56
2024-02-08T02:13:04.383Z,8.57
2024-02-08T02:15:32.950Z,8.39
2024-02-08T02:18:05.074Z,7.83
2024-02-08T02:20:31.589Z,8.42
2024-02-08T02:22:59.894Z,7.84
2024-02-08T02:25:29.778Z,7.74
2024-02-08T02:27:59.745Z,8.17
2024-02-08T02:30:29.633Z,7.50
2024-02-08T02:33:01.031Z,8.49
2024-02-08T02:35:29.834Z,7.99
2024-02-08T02:37:59.966Z,7.89
2024-02-08T02:40:26.520Z,8.41
2024-02-08T02:42:54.147Z,8.56
2024-02-08T02:45:25.131Z,7.41
2024-02-08T02:47:54.691Z,7.04
2024-02-08T02:50:22.614Z,7.71
2024-02-08T02:52:50.455Z,8.20
2024-02-08T02:55:21.308Z,8.44
2024-02-08T02:57:48.433Z,8.45
2024-02-08T03:00:34.866Z,8.71
2024-02-08T03:03:09.994Z,8.52
2024-02-08T03:05:40.882Z,8.29
2024-02-08T03:08:08.077Z,8.58
2024-02-08T03:10:36.045Z,8.51
2024-02-08T03:13:02.560Z,8.65
2024-02-08T03:15:28.992Z,8.05
2024-02-08T03:17:55.516Z,8.35
2024-02-08T03:20:25.549Z,8.14
2024-02-08T03:22:52.487Z,8.14
2024-02-08T03:25:22.750Z,8.51
2024-02-08T03:27:55.310Z,8.72
2024-02-08T03:30:32.055Z,8.49
2024-02-08T03:32:59.957Z,7.75
2024-02-08T03:35:30.975Z,8.47
2024-02-08T03:38:01.818Z,7.42
2024-02-08T03:40:33.611Z,8.44
2024-02-08T03:43:01.489Z,7.54
2024-02-08T03:45:31.456Z,8.37
2024-02-08T03:48:00.210Z,8.15
2024-02-08T03:50:35.071Z,8.58
2024-02-08T03:53:05.534Z,8.08
2024-02-08T03:55:33.019Z,7.65
2024-02-08T03:58:01.646Z,8.32
2024-02-08T04:00:31.440Z,8.36
2024-02-08T04:03:04.958Z,8.17
2024-02-08T04:05:50.228Z,8.18
2024-02-08T04:08:28.679Z,8.17
2024-02-08T04:10:55.787Z,8.53
2024-02-08T04:13:41.340Z,8.32
2024-02-08T04:16:26.168Z,8.50
2024-02-08T04:19:11.419Z,8.73
2024-02-08T04:21:56.200Z,8.83
2024-02-08T04:24:41.437Z,8.70
2024-02-08T04:27:28.742Z,8.52
2024-02-08T04:30:13.546Z,8.67
2024-02-08T04:33:08.955Z,8.58
2024-02-08T04:35:53.790Z,8.21
2024-02-08T04:38:38.583Z,8.70
2024-02-08T04:41:23.337Z,8.62
2024-02-08T04:44:08.414Z,8.88
2024-02-08T04:46:53.255Z,8.85
2024-02-08T04:49:38.584Z,8.71
2024-02-08T04:52:24.196Z,8.96
2024-02-08T04:54:50.670Z,8.43
2024-02-08T04:57:17.047Z,8.78
2024-02-08T04:59:47.570Z,9.04
2024-02-08T05:02:15.226Z,8.27
2024-02-08T05:04:43.101Z,8.79
2024-02-08T05:07:09.812Z,8.80
2024-02-08T05:09:36.526Z,7.71
2024-02-08T05:12:06.845Z,8.37
2024-02-08T05:14:36.241Z,8.10
2024-02-08T05:17:03.268Z,8.61
2024-02-08T05:19:30.049Z,8.75
2024-02-08T05:22:00.998Z,8.27
2024-02-08T05:24:32.927Z,8.33
2024-02-08T05:27:03.224Z,7.55
2024-02-08T05:29:30.221Z,7.17
2024-02-08T05:31:59.340Z,7.69
2024-02-08T05:34:27.256Z,8.97
2024-02-08T05:36:59.393Z,8.64
2024-02-08T05:39:27.572Z,7.97
2024-02-08T05:41:59.605Z,8.03
2024-02-08T05:44:32.440Z,7.75
2024-02-08T05:47:12.078Z,7.90
2024-02-08T05:49:52.421Z,8.69
2024-02-08T05:52:29.804Z,7.38
2024-02-08T05:54:56.413Z,7.17
2024-02-08T05:57:25.835Z,7.64
2024-02-08T06:00:03.679Z,8.30
2024-02-08T06:02:31.578Z,7.84
2024-02-08T06:05:05.988Z,7.94
2024-02-08T06:07:35.631Z,8.85
2024-02-08T06:10:16.978Z,8.75
2024-02-08T06:12:53.749Z,8.34
2024-02-08T06:15:25.564Z,7.44
2024-02-08T06:17:58.971Z,8.98
2024-02-08T06:20:35.024Z,7.71
2024-02-08T06:23:18.078Z,8.35
2024-02-08T06:26:02.643Z,8.86
2024-02-08T06:28:30.399Z,7.74
2024-02-08T06:31:00.191Z,8.23
2024-02-08T06:33:27.189Z,9.09
2024-02-08T06:35:57.746Z,8.18
2024-02-08T06:38:42.691Z,8.65
2024-02-08T06:41:24.866Z,8.19
2024-02-08T06:43:58.771Z,8.13
2024-02-08T06:46:48.828Z,8.48
2024-02-08T06:49:37.238Z,8.16
2024-02-08T06:52:22.605Z,8.69
2024-02-08T06:55:07.523Z,8.66
2024-02-08T06:57:52.571Z,8.60
2024-02-08T07:00:37.694Z,8.82
2024-02-08T07:03:23.447Z,8.81
2024-02-08T07:06:08.168Z,8.75
2024-02-08T07:08:53.041Z,8.63
2024-02-08T07:11:37.792Z,8.79
2024-02-08T07:14:22.445Z,8.98
2024-02-08T07:17:07.266Z,8.67
2024-02-08T07:19:52.445Z,8.71
2024-02-08T07:22:37.251Z,8.69
2024-02-08T07:25:22.637Z,8.81
2024-02-08T07:28:08.949Z,8.98
2024-02-08T07:30:56.051Z,8.96
2024-02-08T07:33:41.805Z,8.97
2024-02-08T07:36:30.432Z,8.92
2024-02-08T07:39:17.157Z,8.93
2024-02-08T07:41:54.844Z,8.47
2024-02-08T07:44:24.242Z,8.97
2024-02-08T07:46:51.317Z,8.28
2024-02-08T07:49:18.406Z,8.00
2024-02-08T07:51:51.626Z,8.51
2024-02-08T07:54:22.805Z,7.51
2024-02-08T07:56:49.378Z,9.01
2024-02-08T07:59:27.685Z,8.79
2024-02-08T08:01:58.890Z,7.79
2024-02-08T08:04:52.834Z,8.25
2024-02-08T08:07:26.617Z,8.24
2024-02-08T08:10:10.135Z,8.02
2024-02-08T08:12:37.204Z,8.73
2024-02-08T08:15:04.134Z,8.78
2024-02-08T08:17:31.066Z,8.81
2024-02-08T08:20:05.162Z,8.06
2024-02-08T08:22:35.540Z,8.94
2024-02-08T08:25:22.152Z,8.08
2024-02-08T08:27:48.768Z,8.94
2024-02-08T08:30:31.489Z,9.11
2024-02-08T08:33:03.057Z,9.16
2024-02-08T08:35:46.901Z,9.00
2024-02-08T08:38:20.425Z,8.65
2024-02-08T08:40:50.951Z,8.23
2024-02-08T08:43:23.685Z,8.77
2024-02-08T08:45:51.775Z,8.73
2024-02-08T08:48:22.984Z,9.14
2024-02-08T08:50:56.273Z,9.12
2024-02-08T08:53:29.369Z,9.19
2024-02-08T08:55:56.736Z,8.87
2024-02-08T08:58:28.897Z,8.92
2024-02-08T09:01:12.733Z,8.63
2024-02-08T09:03:41.061Z,8.77
2024-02-08T09:06:13.819Z,8.68
2024-02-08T09:08:47.220Z,9.33
2024-02-08T09:11:20.394Z,9.02
2024-02-08T09:13:52.740Z,9.29
2024-02-08T09:16:23.295Z,9.46
2024-02-08T09:19:03.716Z,9.24
2024-02-08T09:21:36.451Z,9.17
2024-02-08T09:24:07.925Z,9.08
2024-02-08T09:26:53.413Z,9.03
2024-02-08T09:29:28.628Z,8.54
2024-02-08T09:31:59.600Z,8.82
2024-02-08T09:34:42.304Z,8.74
2024-02-08T09:37:10.416Z,8.54
2024-02-08T09:39:56.639Z,8.94
2024-02-08T09:42:30.716Z,8.93
2024-02-08T09:45:15.226Z,9.03
2024-02-08T09:47:56.192Z,8.98
2024-02-08T09:50:37.180Z,8.82
2024-02-08T09:53:20.470Z,9.08
2024-02-08T09:55:56.836Z,8.65
2024-02-08T09:58:43.286Z,9.01
2024-02-08T10:01:23.990Z,8.55
2024-02-08T10:04:06.094Z,9.27
2024-02-08T10:06:40.446Z,8.27
2024-02-08T10:09:30.906Z,9.21
2024-02-08T10:11:59.358Z,8.96
2024-02-08T10:14:27.113Z,7.93
2024-02-08T10:17:01.931Z,8.25
2024-02-08T10:19:48.757Z,8.86
2024-02-08T10:22:28.253Z,8.26
2024-02-08T10:24:54.997Z,9.03
2024-02-08T10:27:22.603Z,9.27
2024-02-08T10:29:52.076Z,9.25
2024-02-08T10:32:19.929Z,9.33
2024-02-08T10:34:47.530Z,8.83
2024-02-08T10:37:34.537Z,9.09
2024-02-08T10:40:01.938Z,9.19
2024-02-08T10:42:39.336Z,8.99
2024-02-08T10:45:06.693Z,9.34
2024-02-08T10:47:42.317Z,9.30
2024-02-08T10:50:21.123Z,8.07
2024-02-08T10:52:50.404Z,8.39
2024-02-08T10:55:19.835Z,8.87
2024-02-08T10:58:22.281Z,9.26
2024-02-08T11:00:49.103Z,9.11
2024-02-08T11:03:29.401Z,9.08
2024-02-08T11:06:02.824Z,8.98
2024-02-08T11:08:37.944Z,8.51
2024-02-08T11:11:10.916Z,9.20
2024-02-08T11:13:43.579Z,9.17
2024-02-08T11:16:21.632Z,8.96
2024-02-08T11:18:53.941Z,9.00
2024-02-08T11:21:44.874Z,8.18
2024-02-08T11:24:14.446Z,8.49
2024-02-08T11:26:55.852Z,8.97
2024-02-08T11:29:25.336Z,8.27
2024-02-08T11:31:51.843Z,9.19
2024-02-08T11:34:25.514Z,8.74
2024-02-08T11:39:30.872Z,8.94
2024-02-08T11:42:06.606Z,8.50
2024-02-08T11:44:40.732Z,8.93
2024-02-08T11:47:24.770Z,9.11
2024-02-08T11:50:02.333Z,8.93
2024-02-08T11:52:29.983Z,9.12
2024-02-08T11:55:02.918Z,9.08
2024-02-08T11:57:38.366Z,9.26
2024-02-08T12:00:16.487Z,9.18
2024-02-08T12:02:53.379Z,9.47
2024-02-08T12:05:22.281Z,8.86
2024-02-08T12:07:49.695Z,8.29
2024-02-08T12:10:23.211Z,9.22
2024-02-08T12:12:55.877Z,9.34
2024-02-08T12:15:22.835Z,8.40
2024-02-08T12:17:54.071Z,8.56
2024-02-08T12:20:20.735Z,9.19
2024-02-08T12:22:54.673Z,9.12
2024-02-08T12:25:21.510Z,9.58
2024-02-08T12:27:58.750Z,9.49
2024-02-08T12:30:34.712Z,9.58
2024-02-08T12:33:09.772Z,9.01
2024-02-08T12:35:41.484Z,8.55
2024-02-08T12:38:10.254Z,9.58
2024-02-08T12:40:37.039Z,8.53
2024-02-08T12:43:09.106Z,9.33
2024-02-08T12:45:36.498Z,9.55
2024-02-08T12:48:07.818Z,9.63
2024-02-08T12:50:36.348Z,8.72
2024-02-08T12:53:06.944Z,8.59
2024-02-08T12:55:33.455Z,8.70
2024-02-08T12:58:06.653Z,8.85
2024-02-08T13:00:36.757Z,9.70
2024-02-08T13:03:07.689Z,9.75
2024-02-08T13:05:39.439Z,9.86
2024-02-08T13:08:09.561Z,9.61
2024-02-08T13:10:39.676Z,9.65
2024-02-08T13:13:11.295Z,9.62
2024-02-08T13:15:38.399Z,8.19
2024-02-08T13:18:10.921Z,9.12
2024-02-08T13:20:40.822Z,9.13
2024-02-08T13:23:10.710Z,8.65
2024-02-08T13:25:37.677Z,9.68
2024-02-08T13:28:04.698Z,9.15
2024-02-08T13:30:31.681Z,8.84
2024-02-08T13:32:59.706Z,9.70
2024-02-08T13:35:27.441Z,9.34
2024-02-08T13:37:55.860Z,9.06
2024-02-08T13:40:24.565Z,8.68
2024-02-08T13:42:57.218Z,8.29
2024-02-08T13:45:27.042Z,8.18
2024-02-08T13:47:59.226Z,9.78
2024-02-08T13:50:31.501Z,9.10
2024-02-08T13:53:00.193Z,9.72
2024-02-08T13:55:45.477Z,9.40
2024-02-08T13:58:19.474Z,9.25
2024-02-08T14:00:46.061Z,9.79
2024-02-08T14:03:15.898Z,9.85
2024-02-08T14:05:51.901Z,9.71
2024-02-08T14:08:19.569Z,8.68
2024-02-08T14:10:46.483Z,9.86
2024-02-08T14:13:17.758Z,8.58
2024-02-08T14:15:49.565Z,9.02
2024-02-08T14:18:28.699Z,9.74
2024-02-08T14:21:02.382Z,8.35
2024-02-08T14:23:38.371Z,9.99
2024-02-08T14:26:09.360Z,9.62
2024-02-08T14:28:44.095Z,9.48
2024-02-08T14:31:11.430Z,9.99
2024-02-08T14:33:42.464Z,9.14
2024-02-08T14:36:11.384Z,9.33
2024-02-08T14:38:46.887Z,8.52
2024-02-08T14:41:27.793Z,9.41
2024-02-08T14:43:56.077Z,9.43
2024-02-08T14:46:27.283Z,9.76
2024-02-08T14:48:55.157Z,8.61
2024-02-08T14:51:24.788Z,9.73
2024-02-08T14:53:55.135Z,9.33
2024-02-08T14:56:22.229Z,8.95
2024-02-08T14:59:08.777Z,9.66
2024-02-08T15:01:43.116Z,9.14
2024-02-08T15:04:23.187Z,8.70
2024-02-08T15:07:06.925Z,8.62
2024-02-08T15:09:37.510Z,8.43
2024-02-08T15:12:05.751Z,9.01
2024-02-08T15:14:39.343Z,8.93
2024-02-08T15:17:11.852Z,8.65
2024-02-08T15:20:38.759Z,9.51
2024-02-08T15:23:41.695Z,9.71
2024-02-08T15:27:07.020Z,10.26
2024-02-08T15:29:44.280Z,10.00
2024-02-08T15:32:20.026Z,9.49
2024-02-08T15:35:00.938Z,9.46
2024-02-08T15:37:28.097Z,8.52
2024-02-08T15:39:54.953Z,9.75
2024-02-08T15:42:33.356Z,10.15
2024-02-08T15:45:00.611Z,9.34
2024-02-08T15:47:30.152Z,10.30
2024-02-08T15:49:57.640Z,9.82
2024-02-08T15:52:35.775Z,10.01
2024-02-08T15:55:16.381Z,9.41
2024-02-08T15:57:52.695Z,9.11
2024-02-08T16:00:34.810Z,9.55
2024-02-08T16:03:04.022Z,9.49
2024-02-08T16:05:36.162Z,9.52
2024-02-08T16:08:07.357Z,9.49
2024-02-08T16:10:34.030Z,10.19
2024-02-08T16:13:07.503Z,10.19
2024-02-08T16:15:53.956Z,10.19
2024-02-08T16:18:27.483Z,9.95
2024-02-08T16:20:59.704Z,10.38
2024-02-08T16:23:45.429Z,9.63
2024-02-08T16:26:14.657Z,8.80
2024-02-08T16:28:51.127Z,9.32
2024-02-08T16:31:18.077Z,8.94
2024-02-08T16:33:54.434Z,9.92
2024-02-08T16:36:35.239Z,9.77
2024-02-08T16:39:09.364Z,10.65
2024-02-08T16:41:50.010Z,10.05
2024-02-08T16:44:23.694Z,10.55
2024-02-08T16:46:56.785Z,9.87
2024-02-08T16:49:32.035Z,10.33
2024-02-08T16:52:05.400Z,9.98
2024-02-08T16:54:35.274Z,11.21
2024-02-08T16:57:07.754Z,11.64
2024-02-08T16:59:49.484Z,11.43
2024-02-08T17:02:40.368Z,12.01
2024-02-08T17:05:13.527Z,11.86
2024-02-08T17:07:46.345Z,12.47
2024-02-08T17:10:37.447Z,13.22
2024-02-08T17:13:17.397Z,12.60
2024-02-08T17:16:00.785Z,12.82
2024-02-08T17:18:35.179Z,13.04
2024-02-08T17:21:28.296Z,12.76
2024-02-08T17:24:02.925Z,13.42
2024-02-08T17:26:37.701Z,13.02
2024-02-08T17:29:33.383Z,12.82
2024-02-08T17:31:59.763Z,12.71
2024-02-08T17:34:28.384Z,13.42
2024-02-08T17:36:55.938Z,13.18
2024-02-08T17:39:26.307Z,12.78
2024-02-08T17:41:53.455Z,13.34
2024-02-08T17:44:31.024Z,13.07
2024-02-08T17:47:01.206Z,12.68
2024-02-08T17:49:27.981Z,13.70
2024-02-08T17:51:57.761Z,12.94
2024-02-08T17:54:32.882Z,12.87
2024-02-08T17:57:02.996Z,13.18
2024-02-08T17:59:30.517Z,12.42
2024-02-08T18:02:15.749Z,13.64
2024-02-08T18:07:14.136Z,13.45
2024-02-08T18:09:45.246Z,13.54
2024-02-08T18:12:34.955Z,13.64
2024-02-08T18:15:14.073Z,13.58
2024-02-08T18:17:46.437Z,12.96
2024-02-08T18:20:16.845Z,12.73
2024-02-08T18:22:49.752Z,13.59
2024-02-08T18:25:29.882Z,12.82
2024-02-08T18:28:00.964Z,12.98
2024-02-08T18:30:30.023Z,12.43
2024-02-08T18:33:05.101Z,12.50
2024-02-08T18:35:36.368Z,13.11
2024-02-08T18:38:09.565Z,12.13
2024-02-08T18:40:37.760Z,13.16
2024-02-08T18:43:05.279Z,13.62
2024-02-08T18:45:35.760Z,12.67
2024-02-08T18:48:02.389Z,12.98
2024-02-08T18:50:31.961Z,12.93
2024-02-08T18:53:07.591Z,13.34
2024-02-08T18:55:40.403Z,12.40
2024-02-08T18:58:10.251Z,13.08
2024-02-08T19:00:38.361Z,12.27
2024-02-08T19:03:08.844Z,12.19
2024-02-08T19:05:43.673Z,13.32
2024-02-08T19:08:19.627Z,13.24
2024-02-08T19:10:53.834Z,12.87
2024-02-08T19:13:28.686Z,12.46
2024-02-08T19:16:09.252Z,12.93
2024-02-08T19:18:45.368Z,13.41
2024-02-08T19:21:16.344Z,13.29
2024-02-08T19:23:45.753Z,12.76
2024-02-08T19:26:22.865Z,12.72
2024-02-08T19:28:50.118Z,13.06
2024-02-08T19:31:16.622Z,13.21
2024-02-08T19:33:46.456Z,13.41
2024-02-08T19:36:23.270Z,13.52
2024-02-08T19:38:56.649Z,12.54
2024-02-08T19:41:24.479Z,13.50
2024-02-08T19:43:51.192Z,13.53
2024-02-08T19:46:20.750Z,13.28
2024-02-08T19:48:53.529Z,13.27
2024-02-08T19:51:26.084Z,13.28
2024-02-08T19:53:56.091Z,13.12
2024-02-08T19:56:23.861Z,13.67
2024-02-08T19:58:53.642Z,13.59
2024-02-08T20:01:24.265Z,12.88
2024-02-08T20:03:53.481Z,12.68
2024-02-08T20:06:22.499Z,12.91
2024-02-08T20:08:55.302Z,13.04
2024-02-08T20:11:24.738Z,13.02
2024-02-08T20:14:00.192Z,13.52
2024-02-08T20:16:36.708Z,13.26
2024-02-08T20:19:06.695Z,12.40
2024-02-08T20:21:33.196Z,13.13
2024-02-08T20:24:01.400Z,13.49
2024-02-08T20:26:30.077Z,13.48
2024-02-08T20:28:56.521Z,13.64
2024-02-08T20:31:25.601Z,13.68
2024-02-08T20:33:55.533Z,13.31
2024-02-08T20:36:22.743Z,13.12
2024-02-08T20:38:54.504Z,13.29
2024-02-08T20:41:25.127Z,13.32
2024-02-08T20:44:08.441Z,13.31
2024-02-08T20:46:36.338Z,12.89
2024-02-08T20:49:04.700Z,12.92
2024-02-08T20:51:34.184Z,13.27
2024-02-08T20:54:06.183Z,13.06
2024-02-08T20:56:37.687Z,13.49
2024-02-08T20:59:11.771Z,12.86
2024-02-08T21:01:38.274Z,13.24
2024-02-08T21:04:08.692Z,13.28
2024-02-08T21:06:35.573Z,13.27
2024-02-08T21:09:08.109Z,13.16
2024-02-08T21:11:37.690Z,13.41
2024-02-08T21:14:05.078Z,12.84
2024-02-08T21:16:31.762Z,13.28
2024-02-08T21:18:58.352Z,13.12
2024-02-08T21:21:25.022Z,13.47
2024-02-08T21:23:55.317Z,13.35
2024-02-08T21:26:22.971Z,13.25
2024-02-08T21:28:52.261Z,13.48
2024-02-08T21:31:20.048Z,13.55
2024-02-08T21:33:48.925Z,12.88
2024-02-08T21:36:16.723Z,13.03
2024-02-08T21:38:50.197Z,13.39
2024-02-08T21:41:17.183Z,13.05
2024-02-08T21:43:44.539Z,13.28
2024-02-08T21:46:14.324Z,13.26
2024-02-08T21:48:45.126Z,13.28
2024-02-08T21:51:13.318Z,13.15
2024-02-08T21:53:39.932Z,13.04
2024-02-08T21:56:19.683Z,13.14
2024-02-08T21:58:47.506Z,12.87
2024-02-08T22:03:59.409Z,13.02
2024-02-08T22:06:26.363Z,13.15
2024-02-08T22:08:53.106Z,13.04
2024-02-08T22:11:19.698Z,13.17
2024-02-08T22:13:47.206Z,13.08
2024-02-08T22:16:17.030Z,13.00
2024-02-08T22:18:47.468Z,13.11
2024-02-08T22:21:18.175Z,13.24
2024-02-08T22:23:45.537Z,13.11
2024-02-08T22:26:13.925Z,13.14
2024-02-08T22:28:44.003Z,12.67
2024-02-08T22:31:12.425Z,13.17
2024-02-08T22:33:39.384Z,12.60
2024-02-08T22:36:07.919Z,13.04
2024-02-08T22:38:34.565Z,13.08
2024-02-08T22:41:01.668Z,13.05
2024-02-08T22:43:28.539Z,12.97
2024-02-08T22:45:56.102Z,13.07
2024-02-08T22:48:23.306Z,12.99
2024-02-08T22:50:52.455Z,13.17
2024-02-08T22:53:21.085Z,12.86
2024-02-08T22:55:52.093Z,13.17
2024-02-08T22:58:20.066Z,12.97
2024-02-08T23:00:50.867Z,12.62
2024-02-08T23:03:18.385Z,12.99
2024-02-08T23:05:46.959Z,12.99
2024-02-08T23:08:17.060Z,12.90
2024-02-08T23:10:43.845Z,13.30
2024-02-08T23:13:12.070Z,13.23
2024-02-08T23:15:45.759Z,13.43
2024-02-08T23:18:15.853Z,13.18
2024-02-08T23:20:44.724Z,13.21
2024-02-08T23:23:12.212Z,12.85
2024-02-08T23:25:40.911Z,13.33
2024-02-08T23:28:08.156Z,12.84
2024-02-08T23:30:34.861Z,13.39
2024-02-08T23:33:04.729Z,13.11
2024-02-08T23:35:31.824Z,12.60
2024-02-08T23:38:01.482Z,13.18
2024-02-08T23:40:29.497Z,13.10
2024-02-08T23:42:57.818Z,13.17
2024-02-08T23:45:29.265Z,13.07
2024-02-08T23:47:56.236Z,12.97
2024-02-08T23:50:25.236Z,13.17
2024-02-08T23:52:53.374Z,13.15
2024-02-08T23:55:24.451Z,13.13
2024-02-08T23:57:51.012Z,12.88
